Latest Weather Observations for Cooktown

IDQ60801

Issued at 4:05 pm EST Sunday 26 October 2014 (issued every 30 minutes, with the page automatically refreshed every 10 minutes)

About weather observations | Map of weather stations | Latest weather observations for QLD | Other Formats
Station Details ID: 031209 Name: COOKTOWN AIRPORT Lat: -15.45 Lon: 145.19 Height: 4.8 m
Data from the previous 72 hours. | See also: Recent months at Cooktown
Date/Time
EST
Temp
°C
App
Temp
°C
Dew
Point
Rel
Hum
%
Delta-T
°C
Wind Press
QNH
hPa
Press
MSL
hPa
Rain
since 9 am
mm
Dir
 
Spd
km/h
Gust
km/h
Spd
kts
Gust
kts
26/04:00pm 27.5 24.9 15.9 49 7.1 ESE 24 32 13 17 1013.1 - 0.0
26/03:30pm 26.9 24.1 15.4 49 7.0 ESE 24 32 13 17 1013.1 - 0.0
26/03:00pm 27.6 25.6 15.5 47 7.4 ESE 20 33 11 18 1013.5 1013.4 0.0
26/02:30pm 27.8 25.9 15.7 47 7.4 ESE 20 30 11 16 1013.7 - 0.0
26/02:00pm 27.6 24.9 15.7 48 7.3 ESE 24 35 13 19 1014.2 - 0.0
26/01:30pm 27.3 24.9 15.5 48 7.2 ESE 22 32 12 17 1014.5 - 0.0
26/01:00pm 27.2 24.3 15.2 47 7.3 E 24 32 13 17 1014.8 - 0.0
26/12:30pm 28.9 25.4 14.5 41 8.7 ESE 26 37 14 20 1015.2 - 0.0
26/12:00pm 28.3 23.9 13.0 39 9.0 E 28 39 15 21 1015.8 1015.6 0.0
26/11:30am 28.7 24.4 12.2 36 9.6 E 26 37 14 20 1016.0 - 0.0
26/11:00am 28.0 23.6 13.0 39 8.8 E 28 35 15 19 1016.3 - 0.0
26/10:30am 27.4 22.7 13.1 41 8.4 E 30 39 16 21 1016.6 - 0.0
26/10:00am 27.6 22.8 12.9 40 8.6 ESE 30 41 16 22 1016.9 - 0.0
26/09:30am 28.2 23.5 13.3 40 8.8 E 30 43 16 23 1016.9 - 0.0
26/09:00am 26.7 23.7 14.7 47 7.2 E 24 33 13 18 1016.7 1016.6 0.0
26/08:30am 27.5 23.7 12.5 39 8.7 ESE 24 35 13 19 1016.6 - 0.0
26/08:00am 26.2 21.4 12.8 43 7.8 E 30 43 16 23 1016.5 - 0.0
26/07:30am 26.2 22.0 13.6 45 7.4 E 28 37 15 20 1016.2 - 0.0
26/07:00am 24.9 21.4 14.5 52 6.2 E 26 33 14 18 1015.8 - 0.0
26/06:30am 24.3 22.4 15.7 58 5.2 ESE 20 28 11 15 1015.4 - 0.0
26/06:00am 23.8 21.5 16.6 64 4.4 ESE 24 33 13 18 1015.0 1014.9 0.0
26/05:30am 23.8 22.6 17.5 68 3.9 ESE 20 32 11 17 1014.8 - 0.0
26/05:00am 23.8 22.0 15.5 59 5.0 ESE 19 28 10 15 1014.4 - 0.0
26/04:30am 23.4 21.5 14.2 56 5.4 ESE 17 26 9 14 1014.4 - 0.0
26/04:00am 23.3 21.0 14.1 56 5.4 ESE 19 28 10 15 1014.3 - 0.0
26/03:30am 23.5 21.4 15.3 60 4.9 ESE 20 32 11 17 1014.3 - 0.0
26/03:00am 23.9 21.8 17.1 65 4.2 ESE 24 39 13 21 1014.4 1014.3 0.0
26/02:30am 23.9 22.6 18.2 70 3.6 ESE 22 30 12 16 1014.4 - 0.0
26/02:00am 23.4 22.6 18.0 71 3.4 ESE 19 26 10 14 1014.7 - 0.0
26/01:30am 24.0 22.6 17.9 68 3.8 ESE 22 35 12 19 1014.9 - 0.0
26/01:00am 23.8 21.9 18.6 72 3.3 ESE 26 39 14 21 1015.1 - 0.0
26/12:30am 23.6 23.2 19.4 77 2.7 ESE 20 46 11 25 1015.5 - 0.0
26/12:00am 23.2 22.5 19.6 80 2.3 SE 22 39 12 21 1015.9 1015.9 0.0
 
Date/Time
EST
Temp
°C
App
Temp
°C
Dew
Point
Rel
Hum
%
Delta-T
°C
Wind Press
QNH
hPa
Press
MSL
hPa
Rain
since 9 am
mm
Dir
 
Spd
km/h
Gust
km/h
Spd
kts
Gust
kts
25/11:30pm 23.7 23.6 18.8 74 3.1 SE 17 24 9 13 1016.2 - 0.0
25/11:00pm 23.6 23.6 18.2 71 3.4 SE 15 20 8 11 1016.7 - 0.0
25/10:30pm 23.8 23.4 18.0 70 3.6 SE 17 24 9 13 1016.9 - 0.0
25/10:00pm 23.4 23.3 17.9 71 3.4 SE 15 22 8 12 1017.2 - 0.0
25/09:30pm 23.4 23.2 17.6 70 3.6 SE 15 20 8 11 1017.0 - 0.0
25/09:00pm 23.4 23.5 17.4 69 3.7 SE 13 22 7 12 1016.8 1016.7 0.0
25/08:30pm 23.3 24.0 17.1 68 3.8 SE 9 13 5 7 1016.7 - 0.0
25/08:00pm 23.5 23.4 17.0 67 4.0 SE 13 20 7 11 1016.6 - 0.0
25/07:30pm 23.5 23.8 17.0 67 4.0 SE 11 17 6 9 1016.4 - 0.0
25/07:00pm 24.0 23.4 16.7 63 4.5 SSE 15 30 8 16 1016.2 - 0.0
25/06:30pm 24.3 22.6 16.3 61 4.9 SE 20 33 11 18 1016.0 - 0.0
25/06:00pm 24.9 23.1 16.0 57 5.4 SE 20 35 11 19 1015.7 1015.6 0.0
25/05:30pm 25.5 22.9 15.8 55 5.9 SE 24 35 13 19 1015.3 - 0.0
25/05:00pm 26.0 23.7 15.8 53 6.2 SE 22 32 12 17 1015.0 - 0.0
25/04:30pm 26.1 23.4 15.6 52 6.4 SE 24 37 13 20 1014.7 - 0.0
25/04:00pm 26.3 23.3 15.8 52 6.4 ESE 26 39 14 21 1014.6 - 0.0
25/03:30pm 26.9 23.4 15.4 49 7.0 ESE 28 41 15 22 1014.7 - 0.0
25/03:00pm 27.3 24.0 15.1 47 7.4 ESE 26 39 14 21 1014.9 1014.8 0.0
25/02:41pm 27.7 24.2 14.6 44 7.9 SE 26 39 14 21 1015.0 - 0.0
25/02:30pm 27.6 24.5 14.6 45 7.8 SE 24 37 13 20 1015.0 - 0.0
25/02:15pm 27.8 24.8 14.7 44 7.9 SE 24 43 13 23 1015.0 - 0.0
25/02:00pm 28.0 25.1 15.0 45 7.9 SE 24 37 13 20 1015.1 - 0.0
25/01:30pm 28.8 25.7 14.4 41 8.7 SE 24 39 13 21 1015.4 - 0.0
25/01:00pm 28.5 24.8 15.0 43 8.2 SE 28 41 15 22 1015.8 - 0.0
25/12:30pm 26.9 23.8 14.6 46 7.4 ESE 24 33 13 18 1016.2 - 0.0
25/12:22pm 26.5 22.8 14.9 49 7.0 ESE 28 46 15 25 1016.3 - 0.0
25/12:14pm 27.5 24.5 14.9 46 7.6 ESE 24 30 13 16 1016.3 - 0.0
25/12:00pm 27.7 22.7 13.5 41 8.4 SE 32 43 17 23 1016.5 1016.5 0.0
25/11:56am 28.8 24.7 13.9 40 8.9 ESE 28 41 15 22 1016.6 - 0.0
25/11:38am 27.7 23.5 13.5 41 8.4 ESE 28 48 15 26 1016.8 - 0.0
25/11:30am 29.1 25.2 13.2 37 9.4 ESE 26 48 14 26 1016.9 - 0.0
25/11:00am 28.6 23.0 13.4 39 9.0 ESE 35 46 19 25 1017.4 - 0.0
25/10:30am 28.1 23.0 13.8 41 8.5 ESE 33 52 18 28 1017.4 - 0.0
25/10:21am 28.4 23.3 13.8 40 8.7 E 33 52 18 28 1017.4 - 0.0
25/10:00am 27.6 21.6 13.3 41 8.4 ESE 37 46 20 25 1017.7 - 0.0
25/09:30am 27.3 22.7 16.1 50 6.9 ESE 35 54 19 29 1017.8 - 0.0
25/09:27am 27.0 22.2 15.7 50 6.9 E 35 54 19 29 1017.7 - 0.0
25/09:22am 28.0 - 15.4 46 7.7 - - - - - - 1017.7 -
25/09:00am 27.5 23.0 17.3 53 6.4 E 37 50 20 27 1017.8 - 0.0
25/08:30am 26.5 23.1 17.6 58 5.6 ESE 32 52 17 28 1017.6 - 0.0
25/08:28am 26.5 23.1 17.8 58 5.5 ESE 32 52 17 28 1017.5 - 0.0
25/08:00am 25.4 23.1 18.4 65 4.4 ESE 28 44 15 24 1017.3 - 0.0
25/07:30am 24.3 22.0 18.4 69 3.7 SE 28 50 15 27 1017.0 - 0.0
25/07:29am 24.4 22.0 18.2 68 3.9 ESE 28 50 15 27 1017.0 - 0.0
25/07:00am 24.8 22.8 17.4 63 4.6 ESE 24 35 13 19 1016.6 - 0.0
25/06:30am 24.3 22.3 17.4 65 4.3 ESE 24 37 13 20 1016.1 - 0.0
25/06:00am 23.6 23.0 17.5 68 3.8 SE 17 26 9 14 1015.9 1015.9 0.0
25/05:30am 23.8 22.6 17.0 65 4.2 SE 19 35 10 19 1015.5 - 0.0
25/05:00am 23.9 22.0 16.7 64 4.4 SE 22 33 12 18 1015.3 - 0.0
25/04:30am 23.9 21.6 16.7 64 4.4 ESE 24 37 13 20 1015.3 - 0.0
25/04:00am 23.4 22.7 16.5 65 4.2 SE 15 20 8 11 1015.2 - 0.0
25/03:30am 23.0 21.8 16.2 65 4.1 SSE 17 28 9 15 1015.2 - 0.0
25/03:00am 23.2 22.0 16.1 64 4.3 SE 17 28 9 15 1015.2 - 0.0
25/02:30am 23.2 22.2 16.7 67 4.0 SE 17 28 9 15 1015.1 - 0.0
25/02:00am 23.4 21.9 16.3 64 4.3 SE 19 35 10 19 1015.4 - 0.0
25/01:30am 23.6 21.6 15.4 60 4.9 SE 20 33 11 18 1015.7 - 0.0
25/01:00am 23.6 21.4 15.0 58 5.1 SE 20 30 11 16 1016.1 - 0.0
25/12:30am 23.4 22.0 15.6 61 4.7 SE 17 26 9 14 1016.6 - 0.0
25/12:00am 23.7 21.7 15.4 59 5.0 SE 20 35 11 19 1016.8 - 0.0
 
Date/Time
EST
Temp
°C
App
Temp
°C
Dew
Point
Rel
Hum
%
Delta-T
°C
Wind Press
QNH
hPa
Press
MSL
hPa
Rain
since 9 am
mm
Dir
 
Spd
km/h
Gust
km/h
Spd
kts
Gust
kts
24/11:30pm 23.8 22.2 16.4 63 4.5 SE 20 37 11 20 1017.2 - 0.0
24/11:00pm 23.8 22.5 16.8 65 4.3 ESE 19 30 10 16 1017.6 - 0.0
24/10:30pm 23.7 21.9 16.1 62 4.6 ESE 20 28 11 15 1017.8 - 0.0
24/10:00pm 23.8 21.7 14.7 56 5.4 SE 19 28 10 15 1017.8 - 0.0
24/09:30pm 23.8 21.9 15.3 59 5.1 SE 19 28 10 15 1017.7 - 0.0
24/09:00pm 24.3 21.9 15.3 57 5.4 ESE 22 33 12 18 1017.3 - 0.0
24/08:30pm 24.2 22.5 15.8 59 5.1 SE 19 30 10 16 1017.1 - 0.0
24/08:00pm 24.3 22.4 15.1 56 5.5 SE 19 33 10 18 1016.7 - 0.0
24/07:30pm 24.2 22.2 15.6 58 5.2 SE 20 32 11 17 1016.6 - 0.0
24/07:00pm 24.1 22.0 15.1 57 5.4 SE 20 30 11 16 1016.3 - 0.0
24/06:30pm 24.3 21.9 14.3 53 5.9 SE 20 32 11 17 1016.1 - 0.0
24/06:00pm 24.8 21.3 13.5 49 6.6 SE 24 33 13 18 1015.9 - 0.0
24/05:30pm 25.4 21.0 12.8 45 7.3 SE 28 48 15 26 1015.5 - 0.0
24/05:16pm 25.6 20.9 13.3 46 7.2 ESE 30 50 16 27 1015.4 - 0.0
24/05:00pm 25.9 21.8 13.7 47 7.2 ESE 28 44 15 24 1015.1 - 0.0
24/04:30pm 26.3 21.9 12.9 43 7.8 SE 28 43 15 23 1014.9 - 0.0
24/04:00pm 27.2 23.5 11.4 37 9.0 SE 22 33 12 18 1014.6 - 0.0
24/03:30pm 27.6 23.5 13.8 42 8.2 SE 28 41 15 22 1014.6 - 0.0
24/03:00pm 27.2 23.0 15.6 49 7.1 ESE 32 44 17 24 1014.8 - 0.0
24/02:30pm 26.3 22.2 16.0 53 6.3 ESE 32 46 17 25 1015.0 - 0.0
24/02:25pm 27.6 24.4 16.3 50 7.0 ESE 28 46 15 25 1015.0 - 0.0
24/02:00pm 28.2 24.2 16.2 48 7.4 ESE 32 48 17 26 1015.2 - 0.0
24/01:30pm 27.0 24.5 17.1 54 6.2 ESE 26 37 14 20 1015.6 - 0.0
24/01:21pm 26.3 23.5 17.3 57 5.6 ESE 28 46 15 25 1015.7 - 0.0
24/01:00pm 27.7 24.5 16.2 49 7.1 ESE 28 43 15 23 1015.9 - 0.0
24/12:30pm 29.1 26.2 16.2 45 8.0 SE 26 43 14 23 1016.2 - 0.0
24/12:00pm 26.6 24.3 16.6 54 6.2 ESE 24 35 13 19 1016.7 - 0.0
24/11:30am 27.2 25.3 15.7 49 7.0 SE 20 37 11 20 1017.2 - 0.0
24/11:00am 27.4 24.7 15.6 48 7.2 SE 24 35 13 19 1017.6 - 0.0
24/10:30am 27.0 24.0 16.7 53 6.4 E 28 43 15 23 1017.9 - 0.0
24/10:00am 28.2 24.0 16.2 48 7.4 E 33 46 18 25 1018.0 - 0.0
24/09:30am 26.5 22.6 16.4 53 6.2 E 32 44 17 24 1018.1 - 0.0
24/09:00am 25.1 23.7 18.8 68 4.0 E 24 35 13 19 1018.0 1017.9 0.8
24/08:30am 25.9 24.6 18.1 62 4.9 ESE 22 32 12 17 1018.0 - 0.8
24/08:06am 23.1 21.0 19.0 78 2.6 E 28 46 15 25 1018.1 - 0.8
24/08:00am 22.8 20.2 18.7 77 2.6 E 30 46 16 25 1018.1 - 0.8
24/07:59am 23.0 20.7 18.5 76 2.8 E 28 46 15 25 1018.0 - 0.8
24/07:30am 24.2 24.0 19.7 76 2.9 ESE 20 30 11 16 1017.4 - 0.8
24/07:00am 23.9 23.3 18.5 72 3.4 ESE 19 30 10 16 1016.9 - 0.6
24/06:30am 24.3 22.1 17.9 67 4.0 ESE 26 37 14 20 1016.6 - 0.6
24/06:00am 23.4 22.5 18.3 73 3.2 ESE 20 32 11 17 1016.3 1016.2 0.6
24/05:30am 23.5 22.6 18.1 71 3.4 ESE 20 32 11 17 1016.0 - 0.6
24/05:00am 22.7 22.0 18.2 76 2.8 ESE 19 28 10 15 1015.7 - 0.6
24/04:30am 22.6 22.2 18.8 79 2.4 ESE 19 28 10 15 1015.5 - 0.6
24/04:00am 22.3 21.8 18.6 79 2.3 ESE 19 28 10 15 1015.2 - 0.6
24/03:30am 23.4 22.2 17.6 70 3.6 ESE 20 30 11 16 1015.0 - 0.4
24/03:00am 23.5 21.6 17.7 70 3.6 ESE 24 32 13 17 1015.2 1015.1 0.4
24/02:30am 22.9 23.1 18.6 77 2.7 ESE 15 24 8 13 1015.4 - 0.4
24/02:00am 23.0 23.3 19.6 81 2.2 SE 17 35 9 19 1015.7 - 0.4
24/01:30am 23.4 22.6 18.5 74 3.1 SE 20 33 11 18 1016.0 - 0.2
24/01:00am 22.8 22.7 19.5 81 2.1 SE 19 37 10 20 1016.3 - 0.2
24/12:30am 22.9 21.8 19.4 80 2.2 SE 24 35 13 19 1016.7 - 0.2
24/12:00am 24.0 23.1 18.3 70 3.6 ESE 20 32 11 17 1016.9 1016.8 0.2
 
Date/Time
EST
Temp
°C
App
Temp
°C
Dew
Point
Rel
Hum
%
Delta-T
°C
Wind Press
QNH
hPa
Press
MSL
hPa
Rain
since 9 am
mm
Dir
 
Spd
km/h
Gust
km/h
Spd
kts
Gust
kts
23/11:30pm 24.0 23.5 18.6 72 3.4 SE 19 30 10 16 1017.2 - 0.2
23/11:00pm 24.0 22.8 18.3 70 3.6 ESE 22 37 12 20 1017.5 - 0.2
23/10:30pm 24.0 23.1 18.1 69 3.7 SE 20 32 11 17 1017.6 - 0.2
23/10:00pm 24.1 22.7 18.0 68 3.8 ESE 22 43 12 23 1017.6 - 0.2
23/09:30pm 24.1 23.6 18.7 72 3.4 SE 19 26 10 14 1017.5 - 0.2
23/09:00pm 24.1 23.4 18.6 71 3.5 SE 20 35 11 19 1017.3 1017.2 0.2
23/08:30pm 23.9 23.9 18.9 73 3.2 ESE 17 30 9 16 1017.1 - 0.2
23/08:00pm 23.8 23.2 18.4 72 3.4 ESE 19 32 10 17 1016.9 - 0.2
23/07:30pm 23.9 23.1 18.5 72 3.4 ESE 20 30 11 16 1016.6 - 0.2
23/07:00pm 24.0 23.3 18.3 70 3.6 ESE 19 32 10 17 1016.3 - 0.2
23/06:30pm 24.1 22.7 18.0 68 3.8 ESE 22 39 12 21 1015.9 - 0.2
23/06:00pm 24.6 23.7 18.1 67 4.1 ESE 20 35 11 19 1015.5 1015.5 0.2
23/05:30pm 24.6 23.1 18.6 69 3.8 ESE 24 37 13 20 1015.2 - 0.2
23/05:00pm 25.5 23.0 18.0 63 4.7 SE 28 41 15 22 1014.8 - 0.2
23/04:30pm 25.3 22.9 18.3 65 4.4 SE 28 43 15 23 1014.5 - 0.2

Other Formats:

Comma delimited format used in spreadsheet applications
http://www.bom.gov.au/fwo/IDQ60801/IDQ60801.95283.axf

JavaScript Object Notation format (JSON) in row-major order
http://www.bom.gov.au/fwo/IDQ60801/IDQ60801.95283.json